createdAt,value
2018-12-31T00:02:09.456Z,94.90
2018-12-31T00:04:38.767Z,94.50
2018-12-31T00:07:08.485Z,93.70
2018-12-31T00:09:37.915Z,93.00
2018-12-31T00:12:07.275Z,92.80
2018-12-31T00:14:42.821Z,92.80
2018-12-31T00:17:12.129Z,92.50
2018-12-31T00:19:47.637Z,92.50
2018-12-31T00:22:17.080Z,92.50
2018-12-31T00:24:46.441Z,92.60
2018-12-31T00:27:16.946Z,92.30
2018-12-31T00:29:47.509Z,92.20
2018-12-31T00:32:16.804Z,92.20
2018-12-31T00:34:46.312Z,92.30
2018-12-31T00:37:15.651Z,92.30
2018-12-31T00:39:45.016Z,92.00
2018-12-31T00:42:14.660Z,91.60
2018-12-31T00:44:52.972Z,91.30
2018-12-31T00:47:22.249Z,91.20
2018-12-31T00:49:53.838Z,91.30
2018-12-31T00:52:23.134Z,91.20
2018-12-31T00:54:52.513Z,90.90
2018-12-31T00:57:21.838Z,90.60
2018-12-31T00:59:53.322Z,90.40
2018-12-31T01:02:25.811Z,90.40
2018-12-31T01:04:55.597Z,90.30
2018-12-31T01:07:25.219Z,90.30
2018-12-31T01:09:54.494Z,90.30
2018-12-31T01:12:24.960Z,90.30
2018-12-31T01:14:54.265Z,90.30
2018-12-31T01:17:23.719Z,90.20
2018-12-31T01:19:53.261Z,90.10
2018-12-31T01:22:31.955Z,89.80
2018-12-31T01:25:01.644Z,90.00
2018-12-31T01:27:32.202Z,89.70
2018-12-31T01:30:01.468Z,90.00
2018-12-31T01:32:31.926Z,89.50
2018-12-31T01:35:01.370Z,89.60
2018-12-31T01:37:30.697Z,89.00
2018-12-31T01:40:00.194Z,89.10
2018-12-31T01:42:29.646Z,88.80
2018-12-31T01:45:01.239Z,88.60
2018-12-31T01:47:30.661Z,88.90
2018-12-31T01:50:00.345Z,89.10
2018-12-31T01:52:29.632Z,89.60
2018-12-31T01:54:59.467Z,88.50
2018-12-31T01:57:29.283Z,88.40
2018-12-31T01:59:58.662Z,87.50
2018-12-31T02:02:28.001Z,87.30
2018-12-31T02:05:04.470Z,86.70
2018-12-31T02:07:33.818Z,86.70
2018-12-31T02:10:03.201Z,86.50
2018-12-31T02:12:33.686Z,86.00
2018-12-31T02:15:03.002Z,85.70
2018-12-31T02:17:32.411Z,85.20
2018-12-31T02:20:01.679Z,83.70
2018-12-31T02:22:31.100Z,83.40
2018-12-31T02:25:00.774Z,83.50
2018-12-31T02:27:40.178Z,83.10
2018-12-31T02:30:09.528Z,83.30
2018-12-31T02:32:38.917Z,83.70
2018-12-31T02:35:08.174Z,85.30
2018-12-31T02:37:37.662Z,84.00
2018-12-31T02:40:07.137Z,84.90
2018-12-31T02:42:36.571Z,85.90
2018-12-31T02:45:06.162Z,85.90
2018-12-31T02:47:35.524Z,86.30
2018-12-31T02:50:05.175Z,85.90
2018-12-31T02:52:34.548Z,86.00
2018-12-31T02:55:03.861Z,85.40
2018-12-31T02:57:33.237Z,85.10
2018-12-31T03:00:02.514Z,85.90
2018-12-31T03:02:32.588Z,86.50
2018-12-31T03:05:01.879Z,85.70
2018-12-31T03:07:37.248Z,85.20
2018-12-31T03:10:08.715Z,85.20
2018-12-31T03:12:38.042Z,86.00
2018-12-31T03:15:09.494Z,86.20
2018-12-31T03:17:38.806Z,85.50
2018-12-31T03:20:08.135Z,85.80
2018-12-31T03:22:37.430Z,85.60
2018-12-31T03:25:06.753Z,86.00
2018-12-31T03:27:36.022Z,86.20
2018-12-31T03:30:05.840Z,86.20
2018-12-31T03:32:35.210Z,86.80
2018-12-31T03:35:04.756Z,87.70
2018-12-31T03:37:34.069Z,88.20
2018-12-31T03:40:05.777Z,88.30
2018-12-31T03:42:35.106Z,88.50
2018-12-31T03:45:07.684Z,88.80
2018-12-31T03:47:37.041Z,89.10
2018-12-31T03:50:07.233Z,89.30
2018-12-31T03:52:36.529Z,89.80
2018-12-31T03:55:06.082Z,89.40
2018-12-31T03:57:35.454Z,89.60
2018-12-31T04:00:05.808Z,88.40
2018-12-31T04:02:35.107Z,87.60
2018-12-31T04:05:04.623Z,87.30
2018-12-31T04:07:33.895Z,87.00
2018-12-31T04:10:03.460Z,87.00
2018-12-31T04:12:32.773Z,86.40
2018-12-31T04:15:02.192Z,85.80
2018-12-31T04:17:31.523Z,85.10
2018-12-31T04:20:00.946Z,85.10
2018-12-31T04:22:30.269Z,84.90
2018-12-31T04:25:03.918Z,84.90
2018-12-31T04:27:33.189Z,85.60
2018-12-31T04:30:02.572Z,86.50
2018-12-31T04:32:31.926Z,85.70
2018-12-31T04:35:08.585Z,85.20
2018-12-31T04:37:37.842Z,85.70
2018-12-31T04:40:08.224Z,85.00
2018-12-31T04:42:37.806Z,84.20
2018-12-31T04:45:08.250Z,84.60
2018-12-31T04:47:37.729Z,83.90
2018-12-31T04:50:07.641Z,82.60
2018-12-31T04:52:37.121Z,81.70
2018-12-31T04:55:06.579Z,80.00
2018-12-31T04:57:36.043Z,80.30
2018-12-31T05:00:06.254Z,80.50
2018-12-31T05:02:35.692Z,80.60
2018-12-31T05:05:05.106Z,80.00
2018-12-31T05:07:40.605Z,80.10
2018-12-31T05:10:09.979Z,80.50
2018-12-31T05:12:39.237Z,79.90
2018-12-31T05:15:08.636Z,81.10
2018-12-31T05:17:47.329Z,80.20
2018-12-31T05:20:16.638Z,80.50
2018-12-31T05:22:46.238Z,80.10
2018-12-31T05:25:15.510Z,80.70
2018-12-31T05:27:44.876Z,80.10
2018-12-31T05:30:14.141Z,80.40
2018-12-31T05:32:49.299Z,79.50
2018-12-31T05:35:18.591Z,79.00
2018-12-31T05:37:49.103Z,78.80
2018-12-31T05:40:18.488Z,79.00
2018-12-31T05:42:49.901Z,78.60
2018-12-31T05:45:19.261Z,78.40
2018-12-31T05:47:48.754Z,78.20
2018-12-31T05:50:22.398Z,77.90
2018-12-31T05:52:51.660Z,78.10
2018-12-31T05:55:22.883Z,78.10
2018-12-31T05:57:52.181Z,77.50
2018-12-31T06:00:21.953Z,77.30
2018-12-31T06:02:51.208Z,77.10
2018-12-31T06:05:22.814Z,77.80
2018-12-31T06:07:52.174Z,77.50
2018-12-31T06:10:29.873Z,77.50
2018-12-31T06:13:01.722Z,77.80
2018-12-31T06:15:31.032Z,78.40
2018-12-31T06:18:01.703Z,78.60
2018-12-31T06:20:31.346Z,78.10
2018-12-31T06:23:02.896Z,77.90
2018-12-31T06:25:32.379Z,77.90
2018-12-31T06:28:01.737Z,78.20
2018-12-31T06:30:33.257Z,77.80
2018-12-31T06:33:02.565Z,78.00
2018-12-31T06:35:32.056Z,77.40
2018-12-31T06:38:01.301Z,77.30
2018-12-31T06:40:30.725Z,77.20
2018-12-31T06:43:00.073Z,77.30
2018-12-31T06:45:33.561Z,77.50
2018-12-31T06:48:08.973Z,78.10
2018-12-31T06:50:38.257Z,77.40
2018-12-31T06:53:07.633Z,77.10
2018-12-31T06:55:36.879Z,77.10
2018-12-31T06:58:06.320Z,77.00
2018-12-31T07:00:36.688Z,77.80
2018-12-31T07:03:06.224Z,77.60
2018-12-31T07:05:35.583Z,77.80
2018-12-31T07:08:05.130Z,77.10
2018-12-31T07:10:34.696Z,77.10
2018-12-31T07:13:04.213Z,77.20
2018-12-31T07:15:36.741Z,77.50
2018-12-31T07:18:06.130Z,77.50
2018-12-31T07:20:48.605Z,77.40
2018-12-31T07:23:17.996Z,77.20
2018-12-31T07:25:54.194Z,77.10
2018-12-31T07:28:24.189Z,76.60
2018-12-31T07:31:00.004Z,77.10
2018-12-31T07:33:29.247Z,77.30
2018-12-31T07:35:58.772Z,78.20
2018-12-31T07:38:28.051Z,77.30
2018-12-31T07:40:57.443Z,77.00
2018-12-31T07:43:26.791Z,77.50
2018-12-31T07:46:03.024Z,78.10
2018-12-31T07:48:32.637Z,77.80
2018-12-31T07:51:05.256Z,78.20
2018-12-31T07:53:34.727Z,78.50
2018-12-31T07:56:04.279Z,77.80
2018-12-31T07:58:33.609Z,77.60
2018-12-31T08:01:06.246Z,77.60
2018-12-31T08:03:35.586Z,76.80
2018-12-31T08:06:20.581Z,75.90
2018-12-31T08:09:06.962Z,75.70
2018-12-31T08:11:36.437Z,76.00
2018-12-31T08:14:06.003Z,75.20
2018-12-31T08:16:36.902Z,74.40
2018-12-31T08:19:06.239Z,73.90
2018-12-31T08:21:37.683Z,73.30
2018-12-31T08:24:07.215Z,73.10
2018-12-31T08:26:36.565Z,72.80
2018-12-31T08:29:06.068Z,72.80
2018-12-31T08:31:36.019Z,72.50
2018-12-31T08:34:05.494Z,72.60
2018-12-31T08:36:38.242Z,72.90
2018-12-31T08:39:08.433Z,73.20
2018-12-31T08:41:37.842Z,72.60
2018-12-31T08:44:15.654Z,72.70
2018-12-31T08:46:45.860Z,72.90
2018-12-31T08:49:19.924Z,73.60
2018-12-31T08:51:49.224Z,73.50
2018-12-31T08:54:18.709Z,73.90
2018-12-31T08:56:47.957Z,73.90
2018-12-31T08:59:23.229Z,74.20
2018-12-31T09:02:01.562Z,74.30
2018-12-31T09:04:31.217Z,73.60
2018-12-31T09:07:13.312Z,73.70
2018-12-31T09:09:50.639Z,73.90
2018-12-31T09:12:20.953Z,74.60
2018-12-31T09:14:50.305Z,74.80
2018-12-31T09:17:19.701Z,73.40
2018-12-31T09:19:49.085Z,72.40
2018-12-31T09:22:27.629Z,73.20
2018-12-31T09:24:56.885Z,73.30
2018-12-31T09:27:28.312Z,72.50
2018-12-31T09:29:57.584Z,71.80
2018-12-31T09:32:26.909Z,72.00
2018-12-31T09:35:02.403Z,71.30
2018-12-31T09:37:31.726Z,71.80
2018-12-31T09:40:01.149Z,71.60
2018-12-31T09:42:45.074Z,72.10
2018-12-31T09:45:22.892Z,70.40
2018-12-31T09:47:54.506Z,70.20
2018-12-31T09:50:57.262Z,69.00
2018-12-31T09:53:26.756Z,68.10
2018-12-31T09:55:56.148Z,65.40
2018-12-31T09:58:25.391Z,63.50
2018-12-31T10:00:55.043Z,61.50
2018-12-31T10:03:24.375Z,62.00
2018-12-31T10:05:56.841Z,63.10
2018-12-31T10:08:26.278Z,63.90
2018-12-31T10:11:16.809Z,63.40
2018-12-31T10:13:46.107Z,64.20
2018-12-31T10:16:17.764Z,64.70
2018-12-31T10:18:53.311Z,64.10
2018-12-31T10:21:22.677Z,62.30
2018-12-31T10:23:59.103Z,61.40
2018-12-31T10:26:28.369Z,61.70
2018-12-31T10:29:04.073Z,62.20
2018-12-31T10:31:33.792Z,62.00
2018-12-31T10:34:03.262Z,61.00
2018-12-31T10:36:32.585Z,60.10
2018-12-31T10:39:06.981Z,61.00
2018-12-31T10:41:38.877Z,62.00
2018-12-31T10:44:08.374Z,62.70
2018-12-31T10:46:37.673Z,62.80
2018-12-31T10:49:07.105Z,60.30
2018-12-31T10:51:36.416Z,58.40
2018-12-31T10:54:13.993Z,56.90
2018-12-31T10:56:43.464Z,56.40
2018-12-31T10:59:31.153Z,56.30
2018-12-31T11:02:00.531Z,55.50
2018-12-31T11:04:30.437Z,55.60
2018-12-31T11:07:00.101Z,56.40
2018-12-31T11:09:31.593Z,57.20
2018-12-31T11:12:00.990Z,58.00
2018-12-31T11:14:30.741Z,60.00
2018-12-31T11:17:06.900Z,60.90
2018-12-31T11:19:36.190Z,62.20
2018-12-31T11:22:08.977Z,61.60
2018-12-31T11:24:38.243Z,61.80
2018-12-31T11:27:07.709Z,60.50
2018-12-31T11:29:37.182Z,61.10
2018-12-31T11:32:06.629Z,60.20
2018-12-31T11:34:35.995Z,61.20
2018-12-31T11:37:12.255Z,61.00
2018-12-31T11:39:41.556Z,60.20
2018-12-31T11:42:13.151Z,58.80
2018-12-31T11:44:42.659Z,59.30
2018-12-31T11:47:12.185Z,59.90
2018-12-31T11:49:41.542Z,59.10
2018-12-31T11:52:16.609Z,59.10
2018-12-31T11:54:45.857Z,58.60
2018-12-31T11:57:18.513Z,58.30
2018-12-31T11:59:47.911Z,58.00
2018-12-31T12:02:23.522Z,58.40
2018-12-31T12:04:49.110Z,57.80
2018-12-31T12:07:25.051Z,57.60
2018-12-31T12:09:54.460Z,58.40
2018-12-31T12:12:28.175Z,58.40
2018-12-31T12:14:57.497Z,58.30
2018-12-31T12:17:27.771Z,58.20
2018-12-31T12:19:58.304Z,58.30
2018-12-31T12:22:27.977Z,58.30
2018-12-31T12:24:57.413Z,58.30
2018-12-31T12:27:27.143Z,58.80
2018-12-31T12:30:00.270Z,59.00
2018-12-31T12:32:29.891Z,59.20
2018-12-31T12:35:19.309Z,59.00
2018-12-31T12:37:51.895Z,59.20
2018-12-31T12:40:21.327Z,59.40
2018-12-31T12:46:19.844Z,60.70
2018-12-31T12:48:49.730Z,61.60
2018-12-31T12:51:45.694Z,63.20
2018-12-31T12:54:15.489Z,62.80
2018-12-31T12:56:49.071Z,63.00
2018-12-31T12:59:18.553Z,63.30
2018-12-31T13:01:54.984Z,63.00
2018-12-31T13:04:31.417Z,63.40
2018-12-31T13:07:00.657Z,62.40
2018-12-31T13:09:31.280Z,62.80
2018-12-31T13:12:00.637Z,62.50
2018-12-31T13:14:39.418Z,62.30
2018-12-31T13:17:12.023Z,62.20
2018-12-31T13:19:41.704Z,63.20
2018-12-31T13:22:11.161Z,63.00
2018-12-31T13:24:40.466Z,62.40
2018-12-31T13:27:16.944Z,62.80
2018-12-31T13:29:46.346Z,62.70
2018-12-31T13:32:20.851Z,63.10
2018-12-31T13:34:51.052Z,63.40
2018-12-31T13:37:21.061Z,63.60
2018-12-31T13:39:51.321Z,63.50
2018-12-31T13:42:21.094Z,63.80
2018-12-31T13:44:57.277Z,64.10
2018-12-31T13:47:27.735Z,64.20
2018-12-31T13:49:57.218Z,63.90
2018-12-31T13:52:26.620Z,64.00
2018-12-31T13:54:56.621Z,64.30
2018-12-31T13:57:26.048Z,64.40
2018-12-31T14:00:11.393Z,64.10
2018-12-31T14:02:41.501Z,64.90
2018-12-31T14:05:16.534Z,64.50
2018-12-31T14:07:46.658Z,65.10
2018-12-31T14:10:16.419Z,65.40
2018-12-31T14:12:46.406Z,65.90
2018-12-31T14:15:17.707Z,65.80
2018-12-31T14:17:49.191Z,66.10
2018-12-31T14:20:18.631Z,66.50
2018-12-31T14:22:48.213Z,67.20
2018-12-31T14:25:17.489Z,67.70
2018-12-31T14:27:46.940Z,67.80
2018-12-31T14:30:16.950Z,68.40
2018-12-31T14:32:46.559Z,68.60
2018-12-31T14:35:19.000Z,68.90
2018-12-31T14:37:48.593Z,68.90
2018-12-31T14:40:17.977Z,69.10
2018-12-31T14:42:47.490Z,69.50
2018-12-31T14:45:16.815Z,69.90
2018-12-31T14:47:46.255Z,70.10
2018-12-31T14:50:16.089Z,70.70
2018-12-31T14:52:45.577Z,71.20
2018-12-31T14:55:14.896Z,71.40
2018-12-31T14:57:44.494Z,71.30
2018-12-31T15:00:14.300Z,71.50
2018-12-31T15:02:44.203Z,72.00
2018-12-31T15:05:13.590Z,72.40
2018-12-31T15:07:45.302Z,72.80
2018-12-31T15:10:14.591Z,72.80
2018-12-31T15:12:44.081Z,73.00
2018-12-31T15:15:13.428Z,73.20
2018-12-31T15:17:43.190Z,74.00
2018-12-31T15:20:13.674Z,74.50
2018-12-31T15:22:43.462Z,75.10
2018-12-31T15:25:12.913Z,75.10
2018-12-31T15:27:42.291Z,75.20
2018-12-31T15:30:12.051Z,75.50
2018-12-31T15:32:41.788Z,75.90
2018-12-31T15:35:11.868Z,76.30
2018-12-31T15:37:54.117Z,76.60
2018-12-31T15:40:23.921Z,76.80
2018-12-31T15:42:53.397Z,77.20
2018-12-31T15:45:22.737Z,77.70
2018-12-31T15:47:52.549Z,78.60
2018-12-31T15:50:22.174Z,77.80
2018-12-31T15:52:51.628Z,77.40
2018-12-31T15:55:21.092Z,77.20
2018-12-31T15:57:51.612Z,77.30
2018-12-31T16:00:23.608Z,77.50
2018-12-31T16:02:53.009Z,77.80
2018-12-31T16:05:22.720Z,78.50
2018-12-31T16:07:52.162Z,78.00
2018-12-31T16:10:21.564Z,77.70
2018-12-31T16:12:51.478Z,78.20
2018-12-31T16:15:20.845Z,78.50
2018-12-31T16:17:51.848Z,79.20
2018-12-31T16:20:21.255Z,79.50
2018-12-31T16:22:51.045Z,80.40
2018-12-31T16:25:21.767Z,81.00
2018-12-31T16:27:51.332Z,81.40
2018-12-31T16:30:20.795Z,80.40
2018-12-31T16:32:50.109Z,78.90
2018-12-31T16:35:20.823Z,79.00
2018-12-31T16:37:50.424Z,78.70
2018-12-31T16:40:20.886Z,77.90
2018-12-31T16:42:53.581Z,78.50
2018-12-31T16:45:23.502Z,78.40
2018-12-31T16:47:53.101Z,78.30
2018-12-31T16:50:22.711Z,78.70
2018-12-31T16:52:52.530Z,79.00
2018-12-31T16:55:23.060Z,79.00
2018-12-31T16:57:52.942Z,79.20
2018-12-31T17:00:22.417Z,79.80
2018-12-31T17:02:53.236Z,80.20
2018-12-31T17:05:23.524Z,81.20
2018-12-31T17:07:53.061Z,81.40
2018-12-31T17:10:22.953Z,82.20
2018-12-31T17:12:52.512Z,83.30
2018-12-31T17:15:24.614Z,84.70
2018-12-31T17:17:53.975Z,85.90
2018-12-31T17:20:24.498Z,86.60
2018-12-31T17:22:54.040Z,87.10
2018-12-31T17:25:26.346Z,88.10
2018-12-31T17:27:55.823Z,88.70
2018-12-31T17:30:25.200Z,88.90
2018-12-31T17:32:54.569Z,89.40
2018-12-31T17:35:24.106Z,89.40
2018-12-31T17:37:53.624Z,89.20
2018-12-31T17:40:23.092Z,89.30
2018-12-31T17:42:52.576Z,89.30
2018-12-31T17:45:23.278Z,89.20
2018-12-31T17:47:59.155Z,89.40
2018-12-31T17:50:28.727Z,89.50
2018-12-31T17:52:58.274Z,89.90
2018-12-31T17:55:27.718Z,90.00
2018-12-31T17:57:59.350Z,90.20
2018-12-31T18:00:28.694Z,90.30
2018-12-31T18:03:02.543Z,90.40
2018-12-31T18:05:31.870Z,90.40
2018-12-31T18:08:02.298Z,90.60
2018-12-31T18:10:31.712Z,90.80
2018-12-31T18:13:08.516Z,90.90
2018-12-31T18:15:37.824Z,91.00
2018-12-31T18:18:10.453Z,91.10
2018-12-31T18:20:39.897Z,91.30
2018-12-31T18:23:11.473Z,91.30
2018-12-31T18:25:41.293Z,91.20
2018-12-31T18:28:10.930Z,91.30
2018-12-31T18:30:43.004Z,91.30
2018-12-31T18:33:13.452Z,91.30
2018-12-31T18:35:42.825Z,91.30
2018-12-31T18:38:13.542Z,91.20
2018-12-31T18:40:42.949Z,91.10
2018-12-31T18:43:13.767Z,91.20
2018-12-31T18:45:43.213Z,91.20
2018-12-31T18:48:13.598Z,91.10
2018-12-31T18:50:42.958Z,91.10
2018-12-31T18:53:13.710Z,91.20
2018-12-31T18:55:43.106Z,91.30
2018-12-31T18:58:13.561Z,91.40
2018-12-31T19:00:42.855Z,91.50
2018-12-31T19:03:13.567Z,91.60
2018-12-31T19:05:43.510Z,91.80
2018-12-31T19:08:12.945Z,91.80
2018-12-31T19:10:42.335Z,91.90
2018-12-31T19:13:11.922Z,92.00
2018-12-31T19:15:41.325Z,92.00
2018-12-31T19:18:11.391Z,92.10
2018-12-31T19:20:40.725Z,92.10
2018-12-31T19:23:10.537Z,92.20
2018-12-31T19:25:39.806Z,92.20
2018-12-31T19:28:09.236Z,92.30
2018-12-31T19:30:39.019Z,92.20
2018-12-31T19:33:08.451Z,92.10
2018-12-31T19:35:37.821Z,92.10
2018-12-31T19:38:07.189Z,92.20
2018-12-31T19:40:36.478Z,92.20
2018-12-31T19:43:06.351Z,92.20
2018-12-31T19:45:35.712Z,92.40
2018-12-31T19:48:05.099Z,92.40
2018-12-31T19:50:34.585Z,92.30
2018-12-31T19:53:03.886Z,92.40
2018-12-31T19:55:33.746Z,92.40
2018-12-31T19:58:03.101Z,92.50
2018-12-31T20:00:33.281Z,92.40
2018-12-31T20:03:03.400Z,92.50
2018-12-31T20:05:32.929Z,92.40
2018-12-31T20:08:02.628Z,92.50
2018-12-31T20:10:34.832Z,92.50
2018-12-31T20:13:04.216Z,92.50
2018-12-31T20:15:35.611Z,92.50
2018-12-31T20:18:05.087Z,92.40
2018-12-31T20:20:34.471Z,92.50
2018-12-31T20:23:04.871Z,92.40
2018-12-31T20:25:34.758Z,92.40
2018-12-31T20:28:06.257Z,92.30
2018-12-31T20:30:35.898Z,92.40
2018-12-31T20:33:05.978Z,92.50
2018-12-31T20:35:35.687Z,92.50
2018-12-31T20:38:05.431Z,92.60
2018-12-31T20:40:37.100Z,92.60
2018-12-31T20:43:07.217Z,92.50
2018-12-31T20:45:38.663Z,92.70
2018-12-31T20:48:08.409Z,92.90
2018-12-31T20:50:38.177Z,92.90
2018-12-31T20:53:07.820Z,93.10
2018-12-31T20:55:37.963Z,93.20
2018-12-31T20:58:08.957Z,93.30
2018-12-31T21:00:38.375Z,93.30
2018-12-31T21:03:08.518Z,93.50
2018-12-31T21:05:38.202Z,93.70
2018-12-31T21:08:07.726Z,93.70
2018-12-31T21:10:38.195Z,93.90
2018-12-31T21:13:08.038Z,94.20
2018-12-31T21:15:38.049Z,94.30
2018-12-31T21:18:07.532Z,94.50
2018-12-31T21:20:36.923Z,94.40
2018-12-31T21:23:06.516Z,94.20
2018-12-31T21:25:36.564Z,94.30
2018-12-31T21:28:06.114Z,94.40
2018-12-31T21:30:35.592Z,94.30
2018-12-31T21:33:07.117Z,94.20
2018-12-31T21:35:37.757Z,94.30
2018-12-31T21:38:07.539Z,94.40
2018-12-31T21:40:38.099Z,94.40
2018-12-31T21:43:07.886Z,94.30
2018-12-31T21:45:38.723Z,94.40
2018-12-31T21:48:08.966Z,94.30
2018-12-31T21:50:38.756Z,94.20
2018-12-31T21:53:09.253Z,94.20
2018-12-31T21:55:38.547Z,94.30
2018-12-31T21:58:13.873Z,94.20
2018-12-31T22:00:43.261Z,94.20
2018-12-31T22:03:13.813Z,94.10
2018-12-31T22:05:43.230Z,94.00
2018-12-31T22:08:14.042Z,94.10
2018-12-31T22:10:43.395Z,94.10
2018-12-31T22:13:14.351Z,94.20
2018-12-31T22:15:43.785Z,94.20
2018-12-31T22:18:13.847Z,94.20
2018-12-31T22:20:43.161Z,94.10
2018-12-31T22:23:13.941Z,94.20
2018-12-31T22:25:43.427Z,94.20
2018-12-31T22:28:13.021Z,94.40
2018-12-31T22:30:43.390Z,94.40
2018-12-31T22:33:13.391Z,94.40
2018-12-31T22:35:44.597Z,94.30
2018-12-31T22:38:14.075Z,94.30
2018-12-31T22:40:44.789Z,94.50
2018-12-31T22:43:15.233Z,94.60
2018-12-31T22:45:44.778Z,94.70
2018-12-31T22:48:14.245Z,94.60
2018-12-31T22:50:43.619Z,94.70
2018-12-31T22:53:14.274Z,94.80
2018-12-31T22:55:43.785Z,94.80
2018-12-31T22:58:15.157Z,94.90
2018-12-31T23:00:49.512Z,95.00
2018-12-31T23:03:23.083Z,95.10
2018-12-31T23:05:52.554Z,95.20
2018-12-31T23:08:22.457Z,95.20
2018-12-31T23:10:52.223Z,95.40
2018-12-31T23:13:22.378Z,95.30
2018-12-31T23:15:51.824Z,95.20
2018-12-31T23:18:21.292Z,95.20
2018-12-31T23:20:50.935Z,95.10
2018-12-31T23:23:20.455Z,95.10
2018-12-31T23:25:49.917Z,95.20
2018-12-31T23:28:20.071Z,95.40
2018-12-31T23:30:49.611Z,95.20
2018-12-31T23:33:20.026Z,95.20
2018-12-31T23:35:49.571Z,95.20
2018-12-31T23:38:18.866Z,95.20
2018-12-31T23:40:48.322Z,95.30
2018-12-31T23:43:17.671Z,95.20
2018-12-31T23:45:47.235Z,95.20
2018-12-31T23:48:16.538Z,95.30
2018-12-31T23:50:45.986Z,95.30
2018-12-31T23:53:17.476Z,95.40
2018-12-31T23:55:47.149Z,95.60
2018-12-31T23:58:16.616Z,95.70
